Grand Isle, Louisiana
Current Conditions -  °F | °C
As of 2:55 AM on Wednesday 22 Oct 2014 (Local Time) from KXPY Reporting Station
Clear Clear  
Wind Chill: 70°   Ceiling: Unl
Heat Index: 70°   Visibility: 9mi
Dew Point: 64°   Wind: 6mph
Humidity: 83%   Direction: 20°NNE
Pressure: 30.03"   Gusts: NA
Location:  29.24°N, 89.99°W
Report Text: KXPY 220755Z AUTO 02005KT 9SM CLR 21/18 A3003 RMK A01
Loading
Personal Weather Stations






























Interactive Weather Map
Tropical Storm Tracking
New forecast layout! Learn more

10-Day Weather Forecast

Advertisements
Track Severe Weather on mobile